sensor_id;sensor_type;location;lat;lon;timestamp;P1;durP1;ratioP1;P2;durP2;ratioP2
209;SDS011;90;48.810;9.120;2024-03-22T00:01:44;15.63;;;11.27;;
209;SDS011;90;48.810;9.120;2024-03-22T00:04:11;15.20;;;9.80;;
209;SDS011;90;48.810;9.120;2024-03-22T00:06:44;20.13;;;11.53;;
209;SDS011;90;48.810;9.120;2024-03-22T00:09:11;19.33;;;10.60;;
209;SDS011;90;48.810;9.120;2024-03-22T00:11:39;18.43;;;10.80;;
209;SDS011;90;48.810;9.120;2024-03-22T00:14:05;16.63;;;10.90;;
209;SDS011;90;48.810;9.120;2024-03-22T00:16:32;19.60;;;11.40;;
209;SDS011;90;48.810;9.120;2024-03-22T00:18:59;17.27;;;10.87;;
209;SDS011;90;48.810;9.120;2024-03-22T00:21:26;13.60;;;9.60;;
209;SDS011;90;48.810;9.120;2024-03-22T00:23:53;17.70;;;9.90;;
209;SDS011;90;48.810;9.120;2024-03-22T00:26:20;16.53;;;10.27;;
209;SDS011;90;48.810;9.120;2024-03-22T00:28:46;16.00;;;10.10;;
209;SDS011;90;48.810;9.120;2024-03-22T00:31:13;14.10;;;9.57;;
209;SDS011;90;48.810;9.120;2024-03-22T00:33:39;15.00;;;9.60;;
209;SDS011;90;48.810;9.120;2024-03-22T00:36:07;15.73;;;10.23;;
209;SDS011;90;48.810;9.120;2024-03-22T00:38:34;14.93;;;9.90;;
209;SDS011;90;48.810;9.120;2024-03-22T00:41:00;17.60;;;11.10;;
209;SDS011;90;48.810;9.120;2024-03-22T00:43:26;14.20;;;9.90;;
209;SDS011;90;48.810;9.120;2024-03-22T00:45:53;18.40;;;9.87;;
209;SDS011;90;48.810;9.120;2024-03-22T00:48:18;15.60;;;10.27;;
209;SDS011;90;48.810;9.120;2024-03-22T00:50:45;13.70;;;9.33;;
209;SDS011;90;48.810;9.120;2024-03-22T00:53:12;13.17;;;9.17;;
209;SDS011;90;48.810;9.120;2024-03-22T00:55:39;16.40;;;9.20;;
209;SDS011;90;48.810;9.120;2024-03-22T00:58:04;14.40;;;9.20;;
209;SDS011;90;48.810;9.120;2024-03-22T01:00:31;20.40;;;11.20;;
209;SDS011;90;48.810;9.120;2024-03-22T01:02:57;15.53;;;10.73;;
209;SDS011;90;48.810;9.120;2024-03-22T01:05:23;20.67;;;10.63;;
209;SDS011;90;48.810;9.120;2024-03-22T01:07:51;17.50;;;11.40;;
209;SDS011;90;48.810;9.120;2024-03-22T01:10:19;18.73;;;11.50;;
209;SDS011;90;48.810;9.120;2024-03-22T01:12:44;14.43;;;9.27;;
209;SDS011;90;48.810;9.120;2024-03-22T01:15:11;16.23;;;10.40;;
209;SDS011;90;48.810;9.120;2024-03-22T01:17:37;14.50;;;9.20;;
209;SDS011;90;48.810;9.120;2024-03-22T01:20:04;14.18;;;9.10;;
209;SDS011;90;48.810;9.120;2024-03-22T01:22:30;17.30;;;9.63;;
209;SDS011;90;48.810;9.120;2024-03-22T01:24:56;11.10;;;8.80;;
209;SDS011;90;48.810;9.120;2024-03-22T01:27:23;16.73;;;9.50;;
209;SDS011;90;48.810;9.120;2024-03-22T01:29:50;11.13;;;9.43;;
209;SDS011;90;48.810;9.120;2024-03-22T01:32:16;14.90;;;9.33;;
209;SDS011;90;48.810;9.120;2024-03-22T01:34:42;13.93;;;8.67;;
209;SDS011;90;48.810;9.120;2024-03-22T01:37:08;23.07;;;9.13;;
209;SDS011;90;48.810;9.120;2024-03-22T01:39:35;18.83;;;9.93;;
209;SDS011;90;48.810;9.120;2024-03-22T01:42:01;13.10;;;9.23;;
209;SDS011;90;48.810;9.120;2024-03-22T01:44:29;17.43;;;9.83;;
209;SDS011;90;48.810;9.120;2024-03-22T01:46:56;16.10;;;9.87;;
209;SDS011;90;48.810;9.120;2024-03-22T01:49:24;11.97;;;8.73;;
209;SDS011;90;48.810;9.120;2024-03-22T01:51:50;17.00;;;9.10;;
209;SDS011;90;48.810;9.120;2024-03-22T01:54:18;13.77;;;9.00;;
209;SDS011;90;48.810;9.120;2024-03-22T01:56:45;14.87;;;9.33;;
209;SDS011;90;48.810;9.120;2024-03-22T01:59:12;13.93;;;9.60;;
209;SDS011;90;48.810;9.120;2024-03-22T02:01:39;11.97;;;9.67;;
209;SDS011;90;48.810;9.120;2024-03-22T02:04:06;14.37;;;9.40;;
209;SDS011;90;48.810;9.120;2024-03-22T02:06:32;11.67;;;8.77;;
209;SDS011;90;48.810;9.120;2024-03-22T02:08:59;14.53;;;9.37;;
209;SDS011;90;48.810;9.120;2024-03-22T02:11:25;12.93;;;9.40;;
209;SDS011;90;48.810;9.120;2024-03-22T02:13:52;16.87;;;9.53;;
209;SDS011;90;48.810;9.120;2024-03-22T02:16:18;17.03;;;10.60;;
209;SDS011;90;48.810;9.120;2024-03-22T02:18:46;18.77;;;10.20;;
209;SDS011;90;48.810;9.120;2024-03-22T02:21:12;12.90;;;8.50;;
209;SDS011;90;48.810;9.120;2024-03-22T02:23:40;13.00;;;9.37;;
209;SDS011;90;48.810;9.120;2024-03-22T02:26:06;12.33;;;8.97;;
209;SDS011;90;48.810;9.120;2024-03-22T02:28:34;10.77;;;8.30;;
209;SDS011;90;48.810;9.120;2024-03-22T02:31:01;14.23;;;8.80;;
209;SDS011;90;48.810;9.120;2024-03-22T02:33:27;11.40;;;8.50;;
209;SDS011;90;48.810;9.120;2024-03-22T02:35:53;11.00;;;8.23;;
209;SDS011;90;48.810;9.120;2024-03-22T02:38:20;13.13;;;8.30;;
209;SDS011;90;48.810;9.120;2024-03-22T02:40:48;17.10;;;8.53;;
209;SDS011;90;48.810;9.120;2024-03-22T02:43:15;10.60;;;7.33;;
209;SDS011;90;48.810;9.120;2024-03-22T02:45:42;11.10;;;7.60;;
209;SDS011;90;48.810;9.120;2024-03-22T02:48:09;12.33;;;8.23;;
209;SDS011;90;48.810;9.120;2024-03-22T02:50:35;18.00;;;9.03;;
209;SDS011;90;48.810;9.120;2024-03-22T02:53:02;17.90;;;10.50;;
209;SDS011;90;48.810;9.120;2024-03-22T02:55:29;21.53;;;10.77;;
209;SDS011;90;48.810;9.120;2024-03-22T02:57:57;14.90;;;9.80;;
209;SDS011;90;48.810;9.120;2024-03-22T03:00:23;16.03;;;9.80;;
209;SDS011;90;48.810;9.120;2024-03-22T03:02:50;22.97;;;11.70;;
209;SDS011;90;48.810;9.120;2024-03-22T03:05:15;14.87;;;10.03;;
209;SDS011;90;48.810;9.120;2024-03-22T03:07:42;18.63;;;10.20;;
209;SDS011;90;48.810;9.120;2024-03-22T03:10:08;15.90;;;9.93;;
209;SDS011;90;48.810;9.120;2024-03-22T03:12:35;15.60;;;9.67;;
209;SDS011;90;48.810;9.120;2024-03-22T03:15:03;24.40;;;10.47;;
209;SDS011;90;48.810;9.120;2024-03-22T03:17:30;20.13;;;11.10;;
209;SDS011;90;48.810;9.120;2024-03-22T03:19:56;15.37;;;10.40;;
209;SDS011;90;48.810;9.120;2024-03-22T03:22:23;19.13;;;11.03;;
209;SDS011;90;48.810;9.120;2024-03-22T03:24:49;17.60;;;10.63;;
209;SDS011;90;48.810;9.120;2024-03-22T03:27:15;14.77;;;10.17;;
209;SDS011;90;48.810;9.120;2024-03-22T03:29:41;16.97;;;10.70;;
209;SDS011;90;48.810;9.120;2024-03-22T03:32:10;15.70;;;9.53;;
209;SDS011;90;48.810;9.120;2024-03-22T03:34:35;17.90;;;10.47;;
209;SDS011;90;48.810;9.120;2024-03-22T03:37:03;17.83;;;10.40;;
209;SDS011;90;48.810;9.120;2024-03-22T03:39:29;19.87;;;11.20;;
209;SDS011;90;48.810;9.120;2024-03-22T03:41:57;18.40;;;11.33;;
209;SDS011;90;48.810;9.120;2024-03-22T03:44:23;16.90;;;9.70;;
209;SDS011;90;48.810;9.120;2024-03-22T03:46:50;18.47;;;11.07;;
209;SDS011;90;48.810;9.120;2024-03-22T03:49:17;20.23;;;11.23;;
209;SDS011;90;48.810;9.120;2024-03-22T03:51:44;17.80;;;10.97;;
209;SDS011;90;48.810;9.120;2024-03-22T03:54:10;17.03;;;10.50;;
209;SDS011;90;48.810;9.120;2024-03-22T03:56:37;14.60;;;9.63;;
209;SDS011;90;48.810;9.120;2024-03-22T03:59:03;15.40;;;10.30;;
209;SDS011;90;48.810;9.120;2024-03-22T04:01:30;15.43;;;10.30;;
209;SDS011;90;48.810;9.120;2024-03-22T04:03:56;17.37;;;10.30;;
209;SDS011;90;48.810;9.120;2024-03-22T04:06:24;18.10;;;10.07;;
209;SDS011;90;48.810;9.120;2024-03-22T04:08:50;16.03;;;10.57;;
209;SDS011;90;48.810;9.120;2024-03-22T04:11:20;15.23;;;10.73;;
209;SDS011;90;48.810;9.120;2024-03-22T04:13:46;18.73;;;10.27;;
209;SDS011;90;48.810;9.120;2024-03-22T04:16:13;22.03;;;10.10;;
209;SDS011;90;48.810;9.120;2024-03-22T04:18:39;15.60;;;9.67;;
209;SDS011;90;48.810;9.120;2024-03-22T04:21:06;16.80;;;10.60;;
209;SDS011;90;48.810;9.120;2024-03-22T04:23:33;15.93;;;10.53;;
209;SDS011;90;48.810;9.120;2024-03-22T04:26:01;16.60;;;9.17;;
209;SDS011;90;48.810;9.120;2024-03-22T04:28:28;20.17;;;11.43;;
209;SDS011;90;48.810;9.120;2024-03-22T04:30:56;16.47;;;10.30;;
209;SDS011;90;48.810;9.120;2024-03-22T04:33:23;19.73;;;10.47;;
209;SDS011;90;48.810;9.120;2024-03-22T04:35:50;16.67;;;9.90;;
209;SDS011;90;48.810;9.120;2024-03-22T04:38:16;16.30;;;10.13;;
209;SDS011;90;48.810;9.120;2024-03-22T04:40:45;18.80;;;10.23;;
209;SDS011;90;48.810;9.120;2024-03-22T04:43:12;17.20;;;9.70;;
209;SDS011;90;48.810;9.120;2024-03-22T04:45:39;22.93;;;11.27;;
209;SDS011;90;48.810;9.120;2024-03-22T04:48:08;17.63;;;10.70;;
209;SDS011;90;48.810;9.120;2024-03-22T04:50:34;17.07;;;10.43;;
209;SDS011;90;48.810;9.120;2024-03-22T04:53:01;13.00;;;9.63;;
209;SDS011;90;48.810;9.120;2024-03-22T04:55:27;18.17;;;10.83;;
209;SDS011;90;48.810;9.120;2024-03-22T04:57:56;15.60;;;10.03;;
209;SDS011;90;48.810;9.120;2024-03-22T05:00:22;12.93;;;8.73;;
209;SDS011;90;48.810;9.120;2024-03-22T05:02:50;16.33;;;9.50;;
209;SDS011;90;48.810;9.120;2024-03-22T05:05:16;14.67;;;9.43;;
209;SDS011;90;48.810;9.120;2024-03-22T05:07:43;17.77;;;10.60;;
209;SDS011;90;48.810;9.120;2024-03-22T05:10:09;14.90;;;10.40;;
209;SDS011;90;48.810;9.120;2024-03-22T05:12:36;16.57;;;10.10;;
209;SDS011;90;48.810;9.120;2024-03-22T05:15:05;13.67;;;9.30;;
209;SDS011;90;48.810;9.120;2024-03-22T05:17:32;17.87;;;10.27;;
209;SDS011;90;48.810;9.120;2024-03-22T05:19:59;17.83;;;12.00;;
209;SDS011;90;48.810;9.120;2024-03-22T05:22:25;22.30;;;11.77;;
209;SDS011;90;48.810;9.120;2024-03-22T05:24:52;16.20;;;10.40;;
209;SDS011;90;48.810;9.120;2024-03-22T05:27:18;18.53;;;10.50;;
209;SDS011;90;48.810;9.120;2024-03-22T05:29:45;16.13;;;10.30;;
209;SDS011;90;48.810;9.120;2024-03-22T05:32:13;19.90;;;10.90;;
209;SDS011;90;48.810;9.120;2024-03-22T05:34:40;19.40;;;11.10;;
209;SDS011;90;48.810;9.120;2024-03-22T05:37:06;18.53;;;9.90;;
209;SDS011;90;48.810;9.120;2024-03-22T05:39:34;13.70;;;9.60;;
209;SDS011;90;48.810;9.120;2024-03-22T05:41:59;14.47;;;10.30;;
209;SDS011;90;48.810;9.120;2024-03-22T05:44:27;18.27;;;10.40;;
209;SDS011;90;48.810;9.120;2024-03-22T05:46:53;15.07;;;10.20;;
209;SDS011;90;48.810;9.120;2024-03-22T05:49:22;18.43;;;10.30;;
209;SDS011;90;48.810;9.120;2024-03-22T05:51:48;15.03;;;10.60;;
209;SDS011;90;48.810;9.120;2024-03-22T05:54:15;17.67;;;10.70;;
209;SDS011;90;48.810;9.120;2024-03-22T05:56:41;19.03;;;11.67;;
209;SDS011;90;48.810;9.120;2024-03-22T05:59:08;20.03;;;12.20;;
209;SDS011;90;48.810;9.120;2024-03-22T06:01:36;18.37;;;10.53;;
209;SDS011;90;48.810;9.120;2024-03-22T06:04:16;19.70;;;11.70;;
209;SDS011;90;48.810;9.120;2024-03-22T06:06:45;21.20;;;13.30;;
209;SDS011;90;48.810;9.120;2024-03-22T06:09:18;21.33;;;12.17;;
209;SDS011;90;48.810;9.120;2024-03-22T06:11:49;23.37;;;12.40;;
209;SDS011;90;48.810;9.120;2024-03-22T06:14:15;20.50;;;12.90;;
209;SDS011;90;48.810;9.120;2024-03-22T06:16:42;24.60;;;13.80;;
209;SDS011;90;48.810;9.120;2024-03-22T06:19:08;24.20;;;14.20;;
209;SDS011;90;48.810;9.120;2024-03-22T06:21:35;26.17;;;14.60;;
209;SDS011;90;48.810;9.120;2024-03-22T06:24:03;22.00;;;12.57;;
209;SDS011;90;48.810;9.120;2024-03-22T06:26:31;24.17;;;13.43;;
209;SDS011;90;48.810;9.120;2024-03-22T06:28:57;21.47;;;13.97;;
209;SDS011;90;48.810;9.120;2024-03-22T06:31:26;23.60;;;13.80;;
209;SDS011;90;48.810;9.120;2024-03-22T06:33:54;23.47;;;14.17;;
209;SDS011;90;48.810;9.120;2024-03-22T06:36:27;29.10;;;14.60;;
209;SDS011;90;48.810;9.120;2024-03-22T06:38:53;35.57;;;14.80;;
209;SDS011;90;48.810;9.120;2024-03-22T06:41:25;27.13;;;14.13;;
209;SDS011;90;48.810;9.120;2024-03-22T06:43:51;26.50;;;14.87;;
209;SDS011;90;48.810;9.120;2024-03-22T06:46:18;28.30;;;15.03;;
209;SDS011;90;48.810;9.120;2024-03-22T06:48:44;28.80;;;14.70;;
209;SDS011;90;48.810;9.120;2024-03-22T06:51:11;25.52;;;13.98;;
209;SDS011;90;48.810;9.120;2024-03-22T06:53:42;20.53;;;14.03;;
209;SDS011;90;48.810;9.120;2024-03-22T06:56:10;24.20;;;13.57;;
209;SDS011;90;48.810;9.120;2024-03-22T06:58:40;28.47;;;13.60;;
209;SDS011;90;48.810;9.120;2024-03-22T07:01:10;19.80;;;12.67;;
209;SDS011;90;48.810;9.120;2024-03-22T07:03:36;21.77;;;12.50;;
209;SDS011;90;48.810;9.120;2024-03-22T07:06:03;23.93;;;13.40;;
209;SDS011;90;48.810;9.120;2024-03-22T07:08:30;18.97;;;12.33;;
209;SDS011;90;48.810;9.120;2024-03-22T07:10:57;22.07;;;13.53;;
209;SDS011;90;48.810;9.120;2024-03-22T07:13:25;21.73;;;13.77;;
209;SDS011;90;48.810;9.120;2024-03-22T07:16:11;21.10;;;12.63;;
209;SDS011;90;48.810;9.120;2024-03-22T07:18:37;23.57;;;14.30;;
209;SDS011;90;48.810;9.120;2024-03-22T07:21:04;24.53;;;14.47;;
209;SDS011;90;48.810;9.120;2024-03-22T07:23:33;19.67;;;13.23;;
209;SDS011;90;48.810;9.120;2024-03-22T07:26:02;19.00;;;11.63;;
209;SDS011;90;48.810;9.120;2024-03-22T07:28:36;19.13;;;12.37;;
209;SDS011;90;48.810;9.120;2024-03-22T07:31:03;14.57;;;10.20;;
209;SDS011;90;48.810;9.120;2024-03-22T07:33:36;16.02;;;10.73;;
209;SDS011;90;48.810;9.120;2024-03-22T07:36:05;21.17;;;11.60;;
209;SDS011;90;48.810;9.120;2024-03-22T07:38:34;15.77;;;10.53;;
209;SDS011;90;48.810;9.120;2024-03-22T07:41:03;18.30;;;11.57;;
209;SDS011;90;48.810;9.120;2024-03-22T07:43:31;17.37;;;10.53;;
209;SDS011;90;48.810;9.120;2024-03-22T07:45:58;16.93;;;10.40;;
209;SDS011;90;48.810;9.120;2024-03-22T07:48:24;19.63;;;10.60;;
209;SDS011;90;48.810;9.120;2024-03-22T07:51:03;18.67;;;11.33;;
209;SDS011;90;48.810;9.120;2024-03-22T07:53:34;15.83;;;10.80;;
209;SDS011;90;48.810;9.120;2024-03-22T07:56:01;15.40;;;10.30;;
209;SDS011;90;48.810;9.120;2024-03-22T07:58:27;14.53;;;10.63;;
209;SDS011;90;48.810;9.120;2024-03-22T08:00:54;17.20;;;10.50;;
209;SDS011;90;48.810;9.120;2024-03-22T08:03:20;16.13;;;10.50;;
209;SDS011;90;48.810;9.120;2024-03-22T08:05:47;23.80;;;10.10;;
209;SDS011;90;48.810;9.120;2024-03-22T08:08:14;16.57;;;10.73;;
209;SDS011;90;48.810;9.120;2024-03-22T08:10:41;16.80;;;10.93;;
209;SDS011;90;48.810;9.120;2024-03-22T08:13:07;17.40;;;10.17;;
209;SDS011;90;48.810;9.120;2024-03-22T08:15:34;14.27;;;10.03;;
209;SDS011;90;48.810;9.120;2024-03-22T08:18:00;13.87;;;9.00;;
209;SDS011;90;48.810;9.120;2024-03-22T08:20:28;15.87;;;9.33;;
209;SDS011;90;48.810;9.120;2024-03-22T08:22:55;15.30;;;9.50;;
209;SDS011;90;48.810;9.120;2024-03-22T08:25:23;18.10;;;10.17;;
209;SDS011;90;48.810;9.120;2024-03-22T08:27:50;19.03;;;10.63;;
209;SDS011;90;48.810;9.120;2024-03-22T08:30:19;14.87;;;9.70;;
209;SDS011;90;48.810;9.120;2024-03-22T08:32:45;14.60;;;9.97;;
209;SDS011;90;48.810;9.120;2024-03-22T08:35:13;18.37;;;10.33;;
209;SDS011;90;48.810;9.120;2024-03-22T08:37:39;16.90;;;9.43;;
209;SDS011;90;48.810;9.120;2024-03-22T08:40:06;12.37;;;8.50;;
209;SDS011;90;48.810;9.120;2024-03-22T08:42:34;12.07;;;9.30;;
209;SDS011;90;48.810;9.120;2024-03-22T08:45:02;12.77;;;8.50;;
209;SDS011;90;48.810;9.120;2024-03-22T08:47:29;18.67;;;8.97;;
209;SDS011;90;48.810;9.120;2024-03-22T08:49:58;14.23;;;8.93;;
209;SDS011;90;48.810;9.120;2024-03-22T08:52:24;11.63;;;9.10;;
209;SDS011;90;48.810;9.120;2024-03-22T08:54:55;13.60;;;9.00;;
209;SDS011;90;48.810;9.120;2024-03-22T08:57:21;16.53;;;9.07;;
209;SDS011;90;48.810;9.120;2024-03-22T08:59:49;15.83;;;8.83;;
209;SDS011;90;48.810;9.120;2024-03-22T09:02:15;20.07;;;8.90;;
209;SDS011;90;48.810;9.120;2024-03-22T09:04:42;14.00;;;9.00;;
209;SDS011;90;48.810;9.120;2024-03-22T09:07:08;15.90;;;9.90;;
209;SDS011;90;48.810;9.120;2024-03-22T09:09:35;14.50;;;9.67;;
209;SDS011;90;48.810;9.120;2024-03-22T09:12:01;12.53;;;8.00;;
209;SDS011;90;48.810;9.120;2024-03-22T09:14:28;11.40;;;8.50;;
209;SDS011;90;48.810;9.120;2024-03-22T09:16:55;13.97;;;8.60;;
209;SDS011;90;48.810;9.120;2024-03-22T09:19:22;12.30;;;8.80;;
209;SDS011;90;48.810;9.120;2024-03-22T09:21:49;14.13;;;8.20;;
209;SDS011;90;48.810;9.120;2024-03-22T09:24:16;14.00;;;8.87;;
209;SDS011;90;48.810;9.120;2024-03-22T09:26:41;13.50;;;8.07;;
209;SDS011;90;48.810;9.120;2024-03-22T09:29:08;11.77;;;8.80;;
209;SDS011;90;48.810;9.120;2024-03-22T09:31:34;10.43;;;7.93;;
209;SDS011;90;48.810;9.120;2024-03-22T09:34:03;11.83;;;8.30;;
209;SDS011;90;48.810;9.120;2024-03-22T09:36:28;13.53;;;8.47;;
209;SDS011;90;48.810;9.120;2024-03-22T09:38:59;10.98;;;7.57;;
209;SDS011;90;48.810;9.120;2024-03-22T09:41:25;10.47;;;7.63;;
209;SDS011;90;48.810;9.120;2024-03-22T09:43:53;12.67;;;7.73;;
209;SDS011;90;48.810;9.120;2024-03-22T09:46:22;13.93;;;8.77;;
209;SDS011;90;48.810;9.120;2024-03-22T09:48:49;10.67;;;7.93;;
209;SDS011;90;48.810;9.120;2024-03-22T09:51:18;9.30;;;8.00;;
209;SDS011;90;48.810;9.120;2024-03-22T09:53:47;13.73;;;8.13;;
209;SDS011;90;48.810;9.120;2024-03-22T09:56:15;10.60;;;7.83;;
209;SDS011;90;48.810;9.120;2024-03-22T09:58:43;12.67;;;8.47;;
209;SDS011;90;48.810;9.120;2024-03-22T10:01:10;14.13;;;8.77;;
209;SDS011;90;48.810;9.120;2024-03-22T10:03:38;11.90;;;7.70;;
209;SDS011;90;48.810;9.120;2024-03-22T10:06:04;12.60;;;8.80;;
209;SDS011;90;48.810;9.120;2024-03-22T10:08:32;13.00;;;8.67;;
209;SDS011;90;48.810;9.120;2024-03-22T10:11:01;13.07;;;8.70;;
209;SDS011;90;48.810;9.120;2024-03-22T10:13:28;12.03;;;8.60;;
209;SDS011;90;48.810;9.120;2024-03-22T10:15:54;7.90;;;6.63;;
209;SDS011;90;48.810;9.120;2024-03-22T10:18:21;10.13;;;8.40;;
209;SDS011;90;48.810;9.120;2024-03-22T10:20:47;14.37;;;8.57;;
209;SDS011;90;48.810;9.120;2024-03-22T10:23:26;11.57;;;7.87;;
209;SDS011;90;48.810;9.120;2024-03-22T10:25:53;11.00;;;8.23;;
209;SDS011;90;48.810;9.120;2024-03-22T10:28:20;11.43;;;7.80;;
209;SDS011;90;48.810;9.120;2024-03-22T10:30:46;10.60;;;7.70;;
209;SDS011;90;48.810;9.120;2024-03-22T10:33:15;12.00;;;7.10;;
209;SDS011;90;48.810;9.120;2024-03-22T10:35:42;15.17;;;8.27;;
209;SDS011;90;48.810;9.120;2024-03-22T10:38:11;10.17;;;6.50;;
209;SDS011;90;48.810;9.120;2024-03-22T10:40:38;12.63;;;8.77;;
209;SDS011;90;48.810;9.120;2024-03-22T10:43:07;11.37;;;8.07;;
209;SDS011;90;48.810;9.120;2024-03-22T10:45:33;12.30;;;8.97;;
209;SDS011;90;48.810;9.120;2024-03-22T10:48:01;16.00;;;8.17;;
209;SDS011;90;48.810;9.120;2024-03-22T10:50:30;6.67;;;6.30;;
209;SDS011;90;48.810;9.120;2024-03-22T10:52:59;14.53;;;8.83;;
209;SDS011;90;48.810;9.120;2024-03-22T10:55:30;12.90;;;9.53;;
209;SDS011;90;48.810;9.120;2024-03-22T10:57:59;16.07;;;8.57;;
209;SDS011;90;48.810;9.120;2024-03-22T11:00:30;14.17;;;9.10;;
209;SDS011;90;48.810;9.120;2024-03-22T11:02:58;10.43;;;7.20;;
209;SDS011;90;48.810;9.120;2024-03-22T11:05:27;12.83;;;8.33;;
209;SDS011;90;48.810;9.120;2024-03-22T11:07:58;12.00;;;8.33;;
209;SDS011;90;48.810;9.120;2024-03-22T11:10:25;13.10;;;8.80;;
209;SDS011;90;48.810;9.120;2024-03-22T11:12:55;12.20;;;9.10;;
209;SDS011;90;48.810;9.120;2024-03-22T11:15:25;13.60;;;8.20;;
209;SDS011;90;48.810;9.120;2024-03-22T11:17:56;14.00;;;9.93;;
209;SDS011;90;48.810;9.120;2024-03-22T11:20:27;16.30;;;9.30;;
209;SDS011;90;48.810;9.120;2024-03-22T11:23:09;10.13;;;7.60;;
209;SDS011;90;48.810;9.120;2024-03-22T11:25:40;11.40;;;7.50;;
209;SDS011;90;48.810;9.120;2024-03-22T11:28:12;8.63;;;7.20;;
209;SDS011;90;48.810;9.120;2024-03-22T11:30:56;7.77;;;7.40;;
209;SDS011;90;48.810;9.120;2024-03-22T11:33:32;8.97;;;7.30;;
209;SDS011;90;48.810;9.120;2024-03-22T11:36:13;7.67;;;6.23;;
209;SDS011;90;48.810;9.120;2024-03-22T11:39:12;8.53;;;6.13;;
209;SDS011;90;48.810;9.120;2024-03-22T11:42:11;12.83;;;6.90;;
209;SDS011;90;48.810;9.120;2024-03-22T11:45:19;10.00;;;6.50;;
209;SDS011;90;48.810;9.120;2024-03-22T11:48:10;11.13;;;7.63;;
209;SDS011;90;48.810;9.120;2024-03-22T11:50:56;7.03;;;6.63;;
209;SDS011;90;48.810;9.120;2024-03-22T11:53:48;7.53;;;6.80;;
209;SDS011;90;48.810;9.120;2024-03-22T11:56:24;8.37;;;6.77;;
209;SDS011;90;48.810;9.120;2024-03-22T11:59:00;9.17;;;6.73;;
209;SDS011;90;48.810;9.120;2024-03-22T12:04:30;11.10;;;6.43;;
209;SDS011;90;48.810;9.120;2024-03-22T12:11:07;11.80;;;6.20;;
209;SDS011;90;48.810;9.120;2024-03-22T12:17:36;6.57;;;6.17;;
209;SDS011;90;48.810;9.120;2024-03-22T12:20:17;6.53;;;5.97;;
209;SDS011;90;48.810;9.120;2024-03-22T12:23:13;8.70;;;6.50;;
209;SDS011;90;48.810;9.120;2024-03-22T12:26:07;7.17;;;6.77;;
209;SDS011;90;48.810;9.120;2024-03-22T12:28:47;12.03;;;7.60;;
209;SDS011;90;48.810;9.120;2024-03-22T12:31:18;12.47;;;7.13;;
209;SDS011;90;48.810;9.120;2024-03-22T12:33:49;10.33;;;7.10;;
209;SDS011;90;48.810;9.120;2024-03-22T12:36:17;8.50;;;7.27;;
209;SDS011;90;48.810;9.120;2024-03-22T12:38:54;7.57;;;7.20;;
209;SDS011;90;48.810;9.120;2024-03-22T12:41:52;7.73;;;6.80;;
209;SDS011;90;48.810;9.120;2024-03-22T12:44:30;8.07;;;6.13;;
209;SDS011;90;48.810;9.120;2024-03-22T12:46:59;7.83;;;6.27;;
209;SDS011;90;48.810;9.120;2024-03-22T12:49:34;9.63;;;5.80;;
209;SDS011;90;48.810;9.120;2024-03-22T12:52:08;5.60;;;5.30;;
209;SDS011;90;48.810;9.120;2024-03-22T12:54:49;11.97;;;6.80;;
209;SDS011;90;48.810;9.120;2024-03-22T12:57:22;6.90;;;5.87;;
209;SDS011;90;48.810;9.120;2024-03-22T12:59:58;6.50;;;5.93;;
209;SDS011;90;48.810;9.120;2024-03-22T13:02:53;7.37;;;5.60;;
209;SDS011;90;48.810;9.120;2024-03-22T13:05:20;8.13;;;5.87;;
209;SDS011;90;48.810;9.120;2024-03-22T13:07:46;6.23;;;5.70;;
209;SDS011;90;48.810;9.120;2024-03-22T13:10:14;5.70;;;5.40;;
209;SDS011;90;48.810;9.120;2024-03-22T13:12:40;5.37;;;5.07;;
209;SDS011;90;48.810;9.120;2024-03-22T13:15:07;6.37;;;6.00;;
209;SDS011;90;48.810;9.120;2024-03-22T13:17:33;6.90;;;6.20;;
209;SDS011;90;48.810;9.120;2024-03-22T13:20:00;7.10;;;6.50;;
209;SDS011;90;48.810;9.120;2024-03-22T13:22:35;7.00;;;6.60;;
209;SDS011;90;48.810;9.120;2024-03-22T13:25:31;6.90;;;6.50;;
209;SDS011;90;48.810;9.120;2024-03-22T13:28:12;8.27;;;6.70;;
209;SDS011;90;48.810;9.120;2024-03-22T13:30:58;8.93;;;7.10;;
209;SDS011;90;48.810;9.120;2024-03-22T13:33:36;6.20;;;5.90;;
209;SDS011;90;48.810;9.120;2024-03-22T13:36:16;7.63;;;5.70;;
209;SDS011;90;48.810;9.120;2024-03-22T13:39:02;12.03;;;5.47;;
209;SDS011;90;48.810;9.120;2024-03-22T13:41:46;6.83;;;6.43;;
209;SDS011;90;48.810;9.120;2024-03-22T13:44:37;6.67;;;5.90;;
209;SDS011;90;48.810;9.120;2024-03-22T13:47:14;8.83;;;5.80;;
209;SDS011;90;48.810;9.120;2024-03-22T13:49:53;6.50;;;6.10;;
209;SDS011;90;48.810;9.120;2024-03-22T13:52:21;8.23;;;5.70;;
209;SDS011;90;48.810;9.120;2024-03-22T13:54:49;7.77;;;6.43;;
209;SDS011;90;48.810;9.120;2024-03-22T13:57:18;5.70;;;5.40;;
209;SDS011;90;48.810;9.120;2024-03-22T13:59:46;6.03;;;5.73;;
209;SDS011;90;48.810;9.120;2024-03-22T14:02:15;6.60;;;6.20;;
209;SDS011;90;48.810;9.120;2024-03-22T14:04:41;9.10;;;7.40;;
209;SDS011;90;48.810;9.120;2024-03-22T14:07:10;9.50;;;7.30;;
209;SDS011;90;48.810;9.120;2024-03-22T14:09:36;9.97;;;8.60;;
209;SDS011;90;48.810;9.120;2024-03-22T14:12:04;13.53;;;7.97;;
209;SDS011;90;48.810;9.120;2024-03-22T14:14:36;9.53;;;8.17;;
209;SDS011;90;48.810;9.120;2024-03-22T14:17:05;12.53;;;7.00;;
209;SDS011;90;48.810;9.120;2024-03-22T14:19:36;11.50;;;6.20;;
209;SDS011;90;48.810;9.120;2024-03-22T14:22:12;6.00;;;5.37;;
209;SDS011;90;48.810;9.120;2024-03-22T14:24:44;10.43;;;5.40;;
209;SDS011;90;48.810;9.120;2024-03-22T14:27:34;7.90;;;5.17;;
209;SDS011;90;48.810;9.120;2024-03-22T14:30:16;5.17;;;4.70;;
209;SDS011;90;48.810;9.120;2024-03-22T14:32:47;7.60;;;4.63;;
209;SDS011;90;48.810;9.120;2024-03-22T14:35:19;5.30;;;4.90;;
209;SDS011;90;48.810;9.120;2024-03-22T14:38:02;5.50;;;4.90;;
209;SDS011;90;48.810;9.120;2024-03-22T14:40:43;5.40;;;4.13;;
209;SDS011;90;48.810;9.120;2024-03-22T14:43:15;5.80;;;4.57;;
209;SDS011;90;48.810;9.120;2024-03-22T14:46:09;5.13;;;3.97;;
209;SDS011;90;48.810;9.120;2024-03-22T14:48:40;6.93;;;3.73;;
209;SDS011;90;48.810;9.120;2024-03-22T14:51:11;4.40;;;4.10;;
209;SDS011;90;48.810;9.120;2024-03-22T14:53:37;4.00;;;3.80;;
209;SDS011;90;48.810;9.120;2024-03-22T14:58:59;3.80;;;3.40;;
209;SDS011;90;48.810;9.120;2024-03-22T15:02:01;7.40;;;3.97;;
209;SDS011;90;48.810;9.120;2024-03-22T15:04:51;5.37;;;4.40;;
209;SDS011;90;48.810;9.120;2024-03-22T15:08:11;6.80;;;3.90;;
209;SDS011;90;48.810;9.120;2024-03-22T15:11:12;4.33;;;3.60;;
209;SDS011;90;48.810;9.120;2024-03-22T15:13:39;7.20;;;4.27;;
209;SDS011;90;48.810;9.120;2024-03-22T15:16:05;4.00;;;3.77;;
209;SDS011;90;48.810;9.120;2024-03-22T15:18:33;4.30;;;3.57;;
209;SDS011;90;48.810;9.120;2024-03-22T15:20:59;8.67;;;3.97;;
209;SDS011;90;48.810;9.120;2024-03-22T15:23:26;7.50;;;4.20;;
209;SDS011;90;48.810;9.120;2024-03-22T15:25:51;4.40;;;4.10;;
209;SDS011;90;48.810;9.120;2024-03-22T15:28:18;4.83;;;4.53;;
209;SDS011;90;48.810;9.120;2024-03-22T15:30:44;6.03;;;5.07;;
209;SDS011;90;48.810;9.120;2024-03-22T15:33:11;10.10;;;3.80;;
209;SDS011;90;48.810;9.120;2024-03-22T15:35:38;5.70;;;4.10;;
209;SDS011;90;48.810;9.120;2024-03-22T15:38:06;4.73;;;4.43;;
209;SDS011;90;48.810;9.120;2024-03-22T15:40:32;4.50;;;4.20;;
209;SDS011;90;48.810;9.120;2024-03-22T15:42:59;12.40;;;5.57;;
209;SDS011;90;48.810;9.120;2024-03-22T15:45:25;8.90;;;4.37;;
209;SDS011;90;48.810;9.120;2024-03-22T15:47:52;5.20;;;4.37;;
209;SDS011;90;48.810;9.120;2024-03-22T15:50:18;7.10;;;4.47;;
209;SDS011;90;48.810;9.120;2024-03-22T15:52:46;6.33;;;3.50;;
209;SDS011;90;48.810;9.120;2024-03-22T15:55:12;4.33;;;3.67;;
209;SDS011;90;48.810;9.120;2024-03-22T15:57:38;4.30;;;4.00;;
209;SDS011;90;48.810;9.120;2024-03-22T16:00:05;4.77;;;4.10;;
209;SDS011;90;48.810;9.120;2024-03-22T16:02:36;6.50;;;4.40;;
209;SDS011;90;48.810;9.120;2024-03-22T16:05:02;5.60;;;5.27;;
209;SDS011;90;48.810;9.120;2024-03-22T16:07:30;14.97;;;4.90;;
209;SDS011;90;48.810;9.120;2024-03-22T16:09:57;4.60;;;4.30;;
209;SDS011;90;48.810;9.120;2024-03-22T16:12:25;5.43;;;4.40;;
209;SDS011;90;48.810;9.120;2024-03-22T16:14:51;4.90;;;4.60;;